createdAt,value
2023-04-09T00:00:33.519Z,89.8
2023-04-09T00:01:33.507Z,89.8
2023-04-09T00:02:33.550Z,89.8
2023-04-09T00:03:33.640Z,89.8
2023-04-09T00:04:33.545Z,89.8
2023-04-09T00:05:33.433Z,89.8
2023-04-09T00:06:33.464Z,89.8
2023-04-09T00:07:33.467Z,89.8
2023-04-09T00:08:33.467Z,89.8
2023-04-09T00:09:33.435Z,89.8
2023-04-09T00:10:33.465Z,89.8
2023-04-09T00:11:33.516Z,89.8
2023-04-09T00:12:33.497Z,89.8
2023-04-09T00:13:39.330Z,89.8
2023-04-09T00:14:33.474Z,89.8
2023-04-09T00:15:33.484Z,90.1
2023-04-09T00:16:33.554Z,90.1
2023-04-09T00:17:33.490Z,90.1
2023-04-09T00:18:33.481Z,90.1
2023-04-09T00:19:33.509Z,90.1
2023-04-09T00:20:33.489Z,90.1
2023-04-09T00:21:33.451Z,90.1
2023-04-09T00:22:33.483Z,90.1
2023-04-09T00:23:33.511Z,90.1
2023-04-09T00:24:33.543Z,90.1
2023-04-09T00:25:33.492Z,90.1
2023-04-09T00:26:33.509Z,90.1
2023-04-09T00:27:33.482Z,90.1
2023-04-09T00:28:33.492Z,90.1
2023-04-09T00:29:33.484Z,90.1
2023-04-09T00:30:33.487Z,90.1
2023-04-09T00:31:33.509Z,90.1
2023-04-09T00:32:33.510Z,90.1
2023-04-09T00:33:33.515Z,90.1
2023-04-09T00:34:33.490Z,90.1
2023-04-09T00:35:33.569Z,90.1
2023-04-09T00:36:33.491Z,90.1
2023-04-09T00:37:33.479Z,90.1
2023-04-09T00:38:33.470Z,90.1
2023-04-09T00:39:33.553Z,90.1
2023-04-09T00:40:33.532Z,90.1
2023-04-09T00:41:33.482Z,90.1
2023-04-09T00:42:33.536Z,90.1
2023-04-09T00:43:33.506Z,90.1
2023-04-09T00:44:33.523Z,90.1
2023-04-09T00:45:33.595Z,90.1
2023-04-09T00:46:33.488Z,90.1
2023-04-09T00:47:33.589Z,90.1
2023-04-09T00:48:33.534Z,90.1
2023-04-09T00:49:33.490Z,90.1
2023-04-09T00:50:33.499Z,90.1
2023-04-09T00:51:33.560Z,90.1
2023-04-09T00:52:33.533Z,90.1
2023-04-09T00:53:33.524Z,90.1
2023-04-09T00:54:33.520Z,90.1
2023-04-09T00:55:33.487Z,90.1
2023-04-09T00:56:33.564Z,90.1
2023-04-09T00:57:33.530Z,90.1
2023-04-09T00:58:33.535Z,90.1
2023-04-09T00:59:33.560Z,90.1
2023-04-09T01:00:33.543Z,90.1
2023-04-09T01:01:33.608Z,90.1
2023-04-09T01:02:33.643Z,90.1
2023-04-09T01:03:33.626Z,90.1
2023-04-09T01:04:33.606Z,90.1
2023-04-09T01:05:33.547Z,90.1
2023-04-09T01:06:33.506Z,90.1
2023-04-09T01:07:33.525Z,90.1
2023-04-09T01:08:33.518Z,90.1
2023-04-09T01:09:33.543Z,90.1
2023-04-09T01:10:33.552Z,90.2
2023-04-09T01:11:33.555Z,90.2
2023-04-09T01:12:33.600Z,90.2
2023-04-09T01:13:33.570Z,90.2
2023-04-09T01:14:33.558Z,90.2
2023-04-09T01:15:33.556Z,90.2
2023-04-09T01:16:33.594Z,90.2
2023-04-09T01:17:33.605Z,90.2
2023-04-09T01:18:33.566Z,90.2
2023-04-09T01:19:33.557Z,90.2
2023-04-09T01:20:33.619Z,90.2
2023-04-09T01:21:33.546Z,90.2
2023-04-09T01:22:33.635Z,90.2
2023-04-09T01:23:33.620Z,90.2
2023-04-09T01:24:33.553Z,90.2
2023-04-09T01:25:33.535Z,90.2
2023-04-09T01:26:33.526Z,90.2
2023-04-09T01:27:33.584Z,90.2
2023-04-09T01:28:33.556Z,90.2
2023-04-09T01:29:33.567Z,90.2
2023-04-09T01:30:33.583Z,90.2
2023-04-09T01:31:33.535Z,90.2
2023-04-09T01:32:33.613Z,90.2
2023-04-09T01:33:33.573Z,90.2
2023-04-09T01:34:33.605Z,90.2
2023-04-09T01:35:33.613Z,90.2
2023-04-09T01:36:33.541Z,90.2
2023-04-09T01:37:33.557Z,90.2
2023-04-09T01:38:33.611Z,90.2
2023-04-09T01:39:33.594Z,90.2
2023-04-09T01:40:33.580Z,90.2
2023-04-09T01:41:33.579Z,90.2
2023-04-09T01:42:33.563Z,90.2
2023-04-09T01:43:33.595Z,90.2
2023-04-09T01:44:33.592Z,90.2
2023-04-09T01:45:33.611Z,90.2
2023-04-09T01:46:33.606Z,90.2
2023-04-09T01:47:33.629Z,90.2
2023-04-09T01:48:33.580Z,90.2
2023-04-09T01:49:33.556Z,90.2
2023-04-09T01:50:33.605Z,90.2
2023-04-09T01:51:33.594Z,90.2
2023-04-09T01:52:33.610Z,90.3
2023-04-09T01:53:33.614Z,90.3
2023-04-09T01:54:33.604Z,90.3
2023-04-09T01:55:33.656Z,90.3
2023-04-09T01:56:33.606Z,90.3
2023-04-09T01:57:33.634Z,90.3
2023-04-09T01:58:33.575Z,90.3
2023-04-09T01:59:33.572Z,90.3
2023-04-09T02:00:33.604Z,90.3
2023-04-09T02:01:33.647Z,90.3
2023-04-09T02:02:33.711Z,90.3
2023-04-09T02:03:33.642Z,90.3
2023-04-09T02:04:33.592Z,90.3
2023-04-09T02:05:33.607Z,90.5
2023-04-09T02:06:33.592Z,90.5
2023-04-09T02:07:33.629Z,90.5
2023-04-09T02:08:33.610Z,90.5
2023-04-09T02:09:33.598Z,90.5
2023-04-09T02:10:33.604Z,90.5
2023-04-09T02:11:33.562Z,90.5
2023-04-09T02:12:33.610Z,90.5
2023-04-09T02:13:33.633Z,90.5
2023-04-09T02:14:33.605Z,90.5
2023-04-09T02:15:33.650Z,90.5
2023-04-09T02:16:33.608Z,90.5
2023-04-09T02:17:33.650Z,90.5
2023-04-09T02:18:33.619Z,90.5
2023-04-09T02:19:33.634Z,90.5
2023-04-09T02:20:33.612Z,90.5
2023-04-09T02:21:33.659Z,90.5
2023-04-09T02:22:33.681Z,90.5
2023-04-09T02:23:33.653Z,90.5
2023-04-09T02:24:33.628Z,90.5
2023-04-09T02:25:33.602Z,90.5
2023-04-09T02:26:33.622Z,90.5
2023-04-09T02:27:33.665Z,90.5
2023-04-09T02:28:33.657Z,90.5
2023-04-09T02:29:33.626Z,90.5
2023-04-09T02:30:33.617Z,90.5
2023-04-09T02:31:33.651Z,90.5
2023-04-09T02:32:33.683Z,90.5
2023-04-09T02:33:33.659Z,90.5
2023-04-09T02:34:33.631Z,90.5
2023-04-09T02:35:33.664Z,90.7
2023-04-09T02:36:33.647Z,90.7
2023-04-09T02:37:33.606Z,90.7
2023-04-09T02:38:33.642Z,90.7
2023-04-09T02:39:33.643Z,90.7
2023-04-09T02:40:33.624Z,90.7
2023-04-09T02:41:33.658Z,90.7
2023-04-09T02:42:33.647Z,90.7
2023-04-09T02:43:33.679Z,90.7
2023-04-09T02:44:33.628Z,90.7
2023-04-09T02:45:33.676Z,90.7
2023-04-09T02:46:33.714Z,90.7
2023-04-09T02:47:33.645Z,90.7
2023-04-09T02:48:33.607Z,90.7
2023-04-09T02:49:33.647Z,90.7
2023-04-09T02:50:33.659Z,90.7
2023-04-09T02:51:33.679Z,90.7
2023-04-09T02:52:33.671Z,90.7
2023-04-09T02:53:33.659Z,90.7
2023-04-09T02:54:33.699Z,90.7
2023-04-09T02:55:33.720Z,90.7
2023-04-09T02:56:33.659Z,90.8
2023-04-09T02:57:33.850Z,90.8
2023-04-09T02:58:33.661Z,90.8
2023-04-09T02:59:33.653Z,90.8
2023-04-09T03:00:33.693Z,90.8
2023-04-09T03:01:33.727Z,90.8
2023-04-09T03:02:33.761Z,90.8
2023-04-09T03:03:33.726Z,90.8
2023-04-09T03:04:33.683Z,90.8
2023-04-09T03:05:33.656Z,90.8
2023-04-09T03:06:33.658Z,90.8
2023-04-09T03:07:33.681Z,90.8
2023-04-09T03:08:33.672Z,90.8
2023-04-09T03:09:33.666Z,90.8
2023-04-09T03:10:33.668Z,90.8
2023-04-09T03:11:33.658Z,90.8
2023-04-09T03:12:33.650Z,90.8
2023-04-09T03:13:33.706Z,90.8
2023-04-09T03:14:35.174Z,90.8
2023-04-09T03:15:33.726Z,90.8
2023-04-09T03:16:33.671Z,90.8
2023-04-09T03:17:33.717Z,90.8
2023-04-09T03:18:33.675Z,90.8
2023-04-09T03:19:33.700Z,90.8
2023-04-09T03:20:33.666Z,90.8
2023-04-09T03:21:33.721Z,90.8
2023-04-09T03:22:33.676Z,90.8
2023-04-09T03:23:33.683Z,90.8
2023-04-09T03:24:33.685Z,90.8
2023-04-09T03:25:33.675Z,90.8
2023-04-09T03:26:33.687Z,90.8
2023-04-09T03:27:33.722Z,90.8
2023-04-09T03:28:33.679Z,90.8
2023-04-09T03:29:33.729Z,90.8
2023-04-09T03:30:33.700Z,90.8
2023-04-09T03:31:33.761Z,90.8
2023-04-09T03:32:33.738Z,90.8
2023-04-09T03:33:33.737Z,90.8
2023-04-09T03:34:33.690Z,90.8
2023-04-09T03:35:33.704Z,90.8
2023-04-09T03:36:33.707Z,90.8
2023-04-09T03:37:33.700Z,90.8
2023-04-09T03:38:33.738Z,90.8
2023-04-09T03:39:33.692Z,90.8
2023-04-09T03:40:33.731Z,90.8
2023-04-09T03:41:33.696Z,90.8
2023-04-09T03:42:33.710Z,90.8
2023-04-09T03:43:33.754Z,90.8
2023-04-09T03:44:33.675Z,90.8
2023-04-09T03:45:33.708Z,90.8
2023-04-09T03:46:33.775Z,90.8
2023-04-09T03:47:33.731Z,90.8
2023-04-09T03:48:33.720Z,90.8
2023-04-09T03:49:33.713Z,90.8
2023-04-09T03:50:33.717Z,91.1
2023-04-09T03:51:33.706Z,91.1
2023-04-09T03:52:33.701Z,91.1
2023-04-09T03:53:33.835Z,91.1
2023-04-09T03:54:33.715Z,91.1
2023-04-09T03:55:33.726Z,91.1
2023-04-09T03:56:33.716Z,91.1
2023-04-09T03:57:33.738Z,91.1
2023-04-09T03:58:33.686Z,91.1
2023-04-09T03:59:33.707Z,91.1
2023-04-09T04:00:33.700Z,91.1
2023-04-09T04:01:33.858Z,91.1
2023-04-09T04:02:34.016Z,91.1
2023-04-09T04:03:33.932Z,91.1
2023-04-09T04:04:33.903Z,91.1
2023-04-09T04:05:33.683Z,91.1
2023-04-09T04:06:33.681Z,91.1
2023-04-09T04:07:33.694Z,91.1
2023-04-09T04:08:33.720Z,91.1
2023-04-09T04:09:33.788Z,91.1
2023-04-09T04:10:33.710Z,91.1
2023-04-09T04:11:33.712Z,91.1
2023-04-09T04:12:33.712Z,91.1
2023-04-09T04:13:33.754Z,91.1
2023-04-09T04:14:33.738Z,91.1
2023-04-09T04:15:33.694Z,91.1
2023-04-09T04:16:33.746Z,91.1
2023-04-09T04:17:33.787Z,91.1
2023-04-09T04:18:33.706Z,91.1
2023-04-09T04:19:33.698Z,91.1
2023-04-09T04:20:33.712Z,91.3
2023-04-09T04:21:33.723Z,91.3
2023-04-09T04:22:33.727Z,91.3
2023-04-09T04:23:33.772Z,91.3
2023-04-09T04:24:33.734Z,91.3
2023-04-09T04:25:33.727Z,91.3
2023-04-09T04:26:33.730Z,91.3
2023-04-09T04:27:33.727Z,91.3
2023-04-09T04:28:33.708Z,91.3
2023-04-09T04:29:33.728Z,91.3
2023-04-09T04:30:33.712Z,91.3
2023-04-09T04:31:33.736Z,91.3
2023-04-09T04:32:33.759Z,91.3
2023-04-09T04:33:33.770Z,91.3
2023-04-09T04:34:33.776Z,91.3
2023-04-09T04:35:33.758Z,91.3
2023-04-09T04:36:33.769Z,91.3
2023-04-09T04:37:33.773Z,91.3
2023-04-09T04:38:33.747Z,91.3
2023-04-09T04:39:33.811Z,91.3
2023-04-09T04:40:33.832Z,91.3
2023-04-09T04:41:33.746Z,91.3
2023-04-09T04:42:33.761Z,91.3
2023-04-09T04:43:33.774Z,91.3
2023-04-09T04:44:33.755Z,91.3
2023-04-09T04:45:33.839Z,91.3
2023-04-09T04:46:33.773Z,91.3
2023-04-09T04:47:33.804Z,91.2
2023-04-09T04:48:33.786Z,91.2
2023-04-09T04:49:33.784Z,91.2
2023-04-09T04:50:33.786Z,91.2
2023-04-09T04:51:33.813Z,91.2
2023-04-09T04:52:33.780Z,91.2
2023-04-09T04:53:33.775Z,91.2
2023-04-09T04:54:33.791Z,91.2
2023-04-09T04:55:33.840Z,91.2
2023-04-09T04:56:33.844Z,91.2
2023-04-09T04:57:33.818Z,91.2
2023-04-09T04:58:33.884Z,91.2
2023-04-09T04:59:33.810Z,91.2
2023-04-09T05:00:33.855Z,91.2
2023-04-09T05:01:33.893Z,91.2
2023-04-09T05:02:33.982Z,91.2
2023-04-09T05:03:33.856Z,91.2
2023-04-09T05:04:33.850Z,91.2
2023-04-09T05:05:33.841Z,91.2
2023-04-09T05:06:33.886Z,91.2
2023-04-09T05:07:33.844Z,91.2
2023-04-09T05:08:33.853Z,91.2
2023-04-09T05:09:33.821Z,91.2
2023-04-09T05:10:33.870Z,91.2
2023-04-09T05:11:33.829Z,91.2
2023-04-09T05:12:33.861Z,91.2
2023-04-09T05:13:33.861Z,91.2
2023-04-09T05:14:33.875Z,90.8
2023-04-09T05:15:33.864Z,90.8
2023-04-09T05:16:33.903Z,90.8
2023-04-09T05:17:33.939Z,90.8
2023-04-09T05:18:33.880Z,90.8
2023-04-09T05:19:33.841Z,90.8
2023-04-09T05:20:33.894Z,90.8
2023-04-09T05:21:33.868Z,90.8
2023-04-09T05:22:33.864Z,90.8
2023-04-09T05:23:33.885Z,90.8
2023-04-09T05:24:33.865Z,90.8
2023-04-09T05:25:33.870Z,90.8
2023-04-09T05:26:33.883Z,90.8
2023-04-09T05:27:33.870Z,90.8
2023-04-09T05:28:33.899Z,90.8
2023-04-09T05:29:33.875Z,90.8
2023-04-09T05:30:33.927Z,90.8
2023-04-09T05:31:33.909Z,90.8
2023-04-09T05:32:34.068Z,90.8
2023-04-09T05:33:33.876Z,90.8
2023-04-09T05:34:33.885Z,90.8
2023-04-09T05:35:33.903Z,90.8
2023-04-09T05:36:33.937Z,90.8
2023-04-09T05:37:33.950Z,90
2023-04-09T05:38:33.925Z,90
2023-04-09T05:39:33.961Z,90
2023-04-09T05:40:33.919Z,90
2023-04-09T05:41:33.925Z,90
2023-04-09T05:42:33.952Z,90
2023-04-09T05:43:33.933Z,90
2023-04-09T05:44:33.920Z,90
2023-04-09T05:45:33.962Z,90
2023-04-09T05:46:33.998Z,90
2023-04-09T05:47:33.953Z,89.1
2023-04-09T05:48:33.985Z,89.1
2023-04-09T05:49:33.965Z,89.1
2023-04-09T05:50:43.633Z,89.1
2023-04-09T05:51:33.945Z,88.8
2023-04-09T05:52:33.925Z,88.8
2023-04-09T05:53:33.995Z,88.8
2023-04-09T05:54:33.919Z,88.8
2023-04-09T05:55:34.021Z,88.8
2023-04-09T05:56:33.966Z,88.8
2023-04-09T05:57:33.970Z,88.8
2023-04-09T05:58:33.923Z,88.8
2023-04-09T05:59:33.923Z,88.8
2023-04-09T06:00:33.963Z,88.8
2023-04-09T06:01:34.001Z,88.8
2023-04-09T06:02:34.055Z,88.8
2023-04-09T06:03:34.127Z,88.8
2023-04-09T06:04:34.030Z,88.8
2023-04-09T06:05:34.005Z,88.8
2023-04-09T06:06:34.002Z,88.8
2023-04-09T06:07:33.981Z,88.8
2023-04-09T06:08:33.952Z,88.8
2023-04-09T06:09:33.983Z,87.3
2023-04-09T06:10:33.967Z,87.3
2023-04-09T06:11:34.018Z,87.3
2023-04-09T06:12:34.002Z,87.3
2023-04-09T06:13:34.022Z,87.3
2023-04-09T06:14:33.991Z,87.3
2023-04-09T06:15:33.994Z,87.3
2023-04-09T06:16:34.021Z,87.3
2023-04-09T06:17:34.072Z,86.3
2023-04-09T06:18:34.039Z,86.3
2023-04-09T06:19:33.985Z,86.3
2023-04-09T06:20:34.012Z,86.3
2023-04-09T06:21:34.003Z,86.3
2023-04-09T06:22:34.012Z,86.3
2023-04-09T06:23:33.989Z,86.3
2023-04-09T06:24:33.994Z,86.3
2023-04-09T06:25:33.989Z,86.3
2023-04-09T06:26:33.999Z,86.3
2023-04-09T06:27:33.986Z,86.3
2023-04-09T06:28:34.038Z,86.3
2023-04-09T06:29:33.998Z,86.3
2023-04-09T06:30:34.003Z,86.3
2023-04-09T06:31:34.054Z,86.3
2023-04-09T06:32:46.794Z,86.3
2023-04-09T06:33:34.046Z,86.3
2023-04-09T06:34:34.049Z,86.3
2023-04-09T06:35:34.110Z,86.3
2023-04-09T06:36:34.042Z,86.3
2023-04-09T06:37:34.028Z,86.3
2023-04-09T06:38:34.017Z,84.2
2023-04-09T06:39:34.036Z,84.3
2023-04-09T06:40:34.040Z,84.3
2023-04-09T06:41:34.071Z,84.3
2023-04-09T06:42:34.054Z,84.3
2023-04-09T06:43:34.084Z,84.3
2023-04-09T06:44:34.027Z,84.3
2023-04-09T06:45:34.041Z,84.3
2023-04-09T06:46:34.064Z,84.3
2023-04-09T06:47:34.075Z,84.3
2023-04-09T06:48:34.051Z,84.3
2023-04-09T06:49:34.054Z,84.3
2023-04-09T06:50:34.055Z,84.3
2023-04-09T06:51:34.080Z,84.3
2023-04-09T06:52:34.059Z,84.3
2023-04-09T06:53:34.278Z,83.5
2023-04-09T06:54:34.093Z,83.5
2023-04-09T06:55:34.048Z,83.5
2023-04-09T06:56:34.070Z,83.5
2023-04-09T06:57:34.062Z,83.5
2023-04-09T06:58:34.073Z,83.5
2023-04-09T06:59:34.055Z,83.5
2023-04-09T07:00:34.106Z,83.5
2023-04-09T07:01:34.130Z,83.5
2023-04-09T07:02:34.169Z,83.5
2023-04-09T07:03:34.192Z,83.5
2023-04-09T07:04:34.153Z,83.5
2023-04-09T07:05:34.118Z,83.5
2023-04-09T07:06:34.128Z,83.5
2023-04-09T07:07:34.107Z,83.5
2023-04-09T07:08:34.109Z,83.5
2023-04-09T07:09:34.121Z,83.5
2023-04-09T07:10:34.119Z,83.5
2023-04-09T07:11:34.115Z,83.5
2023-04-09T07:12:34.142Z,83.5
2023-04-09T07:13:34.106Z,83.5
2023-04-09T07:14:34.135Z,81.6
2023-04-09T07:15:34.130Z,81.6
2023-04-09T07:16:34.158Z,81.6
2023-04-09T07:17:34.156Z,81.6
2023-04-09T07:18:34.098Z,81.6
2023-04-09T07:19:34.129Z,81.6
2023-04-09T07:20:34.157Z,81.6
2023-04-09T07:21:34.115Z,81.6
2023-04-09T07:22:34.115Z,81.6
2023-04-09T07:23:34.180Z,81.6
2023-04-09T07:24:34.128Z,81.6
2023-04-09T07:25:34.456Z,81.6
2023-04-09T07:26:34.158Z,81.6
2023-04-09T07:27:34.146Z,81.6
2023-04-09T07:28:34.180Z,81.6
2023-04-09T07:29:34.193Z,81.6
2023-04-09T07:30:34.158Z,81.6
2023-04-09T07:31:35.919Z,80.4
2023-04-09T07:32:34.159Z,80.4
2023-04-09T07:33:34.173Z,80.4
2023-04-09T07:34:34.130Z,80.4
2023-04-09T07:35:34.247Z,80.4
2023-04-09T07:36:34.169Z,80.4
2023-04-09T07:37:34.168Z,80.4
2023-04-09T07:38:34.165Z,80
2023-04-09T07:39:34.168Z,80
2023-04-09T07:40:34.163Z,80
2023-04-09T07:41:34.161Z,80
2023-04-09T07:42:34.159Z,80
2023-04-09T07:43:34.153Z,80
2023-04-09T07:44:34.501Z,80
2023-04-09T07:45:34.196Z,80
2023-04-09T07:46:34.212Z,80
2023-04-09T07:47:34.233Z,80
2023-04-09T07:48:34.207Z,79.4
2023-04-09T07:49:34.196Z,79.4
2023-04-09T07:50:34.194Z,79.4
2023-04-09T07:51:34.194Z,79.4
2023-04-09T07:52:34.156Z,79.4
2023-04-09T07:53:34.194Z,79.4
2023-04-09T07:54:34.183Z,79.4
2023-04-09T07:55:34.186Z,77.7
2023-04-09T07:56:34.197Z,77.7
2023-04-09T07:57:34.156Z,77.7
2023-04-09T07:58:34.198Z,77.7
2023-04-09T07:59:34.203Z,77.7
2023-04-09T08:00:34.205Z,77.7
2023-04-09T08:01:34.240Z,77.7
2023-04-09T08:02:34.296Z,77.7
2023-04-09T08:03:34.307Z,77.7
2023-04-09T08:04:34.258Z,77.7
2023-04-09T08:05:34.168Z,77.7
2023-04-09T08:06:34.203Z,77.7
2023-04-09T08:07:34.233Z,77.7
2023-04-09T08:08:34.225Z,77.7
2023-04-09T08:09:34.272Z,77.7
2023-04-09T08:10:34.236Z,77.7
2023-04-09T08:11:34.262Z,77.7
2023-04-09T08:12:34.228Z,77.7
2023-04-09T08:13:34.226Z,77.7
2023-04-09T08:14:34.226Z,77.7
2023-04-09T08:15:34.279Z,77.7
2023-04-09T08:16:34.310Z,77.7
2023-04-09T08:17:34.259Z,77.7
2023-04-09T08:18:34.295Z,77.7
2023-04-09T08:19:34.237Z,77.7
2023-04-09T08:20:34.243Z,77.7
2023-04-09T08:21:34.296Z,77.7
2023-04-09T08:22:34.234Z,77.7
2023-04-09T08:23:34.239Z,77.7
2023-04-09T08:24:34.239Z,77.7
2023-04-09T08:25:34.259Z,77.7
2023-04-09T08:26:34.250Z,77.7
2023-04-09T08:27:34.242Z,77.7
2023-04-09T08:28:34.253Z,77.7
2023-04-09T08:29:34.239Z,77.7
2023-04-09T08:30:34.337Z,74.8
2023-04-09T08:31:34.266Z,74.8
2023-04-09T08:32:34.236Z,74.8
2023-04-09T08:33:34.260Z,74.8
2023-04-09T08:34:34.249Z,74.8
2023-04-09T08:35:34.267Z,74.8
2023-04-09T08:36:34.329Z,74.8
2023-04-09T08:37:34.256Z,73.7
2023-04-09T08:38:34.287Z,73.7
2023-04-09T08:39:34.210Z,73.7
2023-04-09T08:40:34.273Z,73.7
2023-04-09T08:41:34.272Z,73.7
2023-04-09T08:42:34.307Z,73.7
2023-04-09T08:43:52.682Z,73.7
2023-04-09T08:44:34.387Z,72.8
2023-04-09T08:45:34.301Z,72.8
2023-04-09T08:46:34.322Z,72.8
2023-04-09T08:47:34.326Z,72.8
2023-04-09T08:48:34.339Z,72.8
2023-04-09T08:49:34.278Z,72.8
2023-04-09T08:50:34.303Z,72.8
2023-04-09T08:51:34.292Z,72.8
2023-04-09T08:52:34.328Z,72.8
2023-04-09T08:53:34.351Z,72.8
2023-04-09T08:54:34.350Z,72.8
2023-04-09T08:55:34.305Z,72.8
2023-04-09T08:56:34.297Z,72.8
2023-04-09T08:57:34.292Z,72.8
2023-04-09T08:58:34.296Z,72.8
2023-04-09T08:59:34.356Z,72.8
2023-04-09T09:00:34.332Z,72.8
2023-04-09T09:01:34.490Z,72.8
2023-04-09T09:02:34.426Z,72.8
2023-04-09T09:03:34.398Z,72.8
2023-04-09T09:04:34.334Z,72.8
2023-04-09T09:05:34.297Z,72.8
2023-04-09T09:06:34.313Z,72.8
2023-04-09T09:07:34.360Z,72.8
2023-04-09T09:08:34.294Z,72.8
2023-04-09T09:09:34.321Z,72.8
2023-04-09T09:10:34.354Z,72.8
2023-04-09T09:11:34.318Z,72.8
2023-04-09T09:12:34.336Z,72.8
2023-04-09T09:13:34.314Z,72.8
2023-04-09T09:14:34.304Z,72.8
2023-04-09T09:15:34.388Z,72.8
2023-04-09T09:16:34.439Z,72.8
2023-04-09T09:17:34.354Z,72.8
2023-04-09T09:18:34.340Z,72.8
2023-04-09T09:19:34.333Z,72.8
2023-04-09T09:20:34.368Z,72.8
2023-04-09T09:21:34.388Z,72.8
2023-04-09T09:22:34.353Z,72.8
2023-04-09T09:23:34.519Z,72.8
2023-04-09T09:24:34.434Z,72.8
2023-04-09T09:25:34.365Z,72.8
2023-04-09T09:26:34.316Z,72.8
2023-04-09T09:27:34.357Z,72.8
2023-04-09T09:28:34.320Z,72.8
2023-04-09T09:29:34.311Z,72.8
2023-04-09T09:30:34.369Z,69.9
2023-04-09T09:31:34.368Z,70.3
2023-04-09T09:32:34.406Z,70.3
2023-04-09T09:33:34.359Z,70.3
2023-04-09T09:34:34.357Z,70.3
2023-04-09T09:35:34.452Z,70.3
2023-04-09T09:36:34.360Z,70.3
2023-04-09T09:37:34.329Z,70.3
2023-04-09T09:38:34.331Z,70.3
2023-04-09T09:39:34.357Z,70.3
2023-04-09T09:40:34.369Z,70.3
2023-04-09T09:41:34.361Z,70.3
2023-04-09T09:42:34.356Z,70.3
2023-04-09T09:43:34.354Z,70.3
2023-04-09T09:44:34.361Z,70.3
2023-04-09T09:45:34.383Z,70.3
2023-04-09T09:46:34.552Z,70.3
2023-04-09T09:47:34.473Z,70.3
2023-04-09T09:48:34.335Z,70.3
2023-04-09T09:49:34.348Z,70.3
2023-04-09T09:50:34.360Z,70.3
2023-04-09T09:51:34.342Z,70.3
2023-04-09T09:52:34.389Z,70.3
2023-04-09T09:53:34.346Z,70.3
2023-04-09T09:54:34.340Z,70.3
2023-04-09T09:55:34.398Z,70.3
2023-04-09T09:56:34.344Z,70.3
2023-04-09T09:57:34.352Z,70.3
2023-04-09T09:58:34.346Z,70.3
2023-04-09T09:59:34.342Z,70.3
2023-04-09T10:00:34.416Z,70.3
2023-04-09T10:01:34.434Z,70.3
2023-04-09T10:02:34.417Z,70.3
2023-04-09T10:03:34.425Z,70.3
2023-04-09T10:04:34.479Z,67.2
2023-04-09T10:05:34.586Z,67.2
2023-04-09T10:06:34.391Z,67.2
2023-04-09T10:07:34.381Z,67.2
2023-04-09T10:08:34.361Z,67.2
2023-04-09T10:09:34.344Z,67.2
2023-04-09T10:10:34.375Z,67.2
2023-04-09T10:11:34.408Z,67.2
2023-04-09T10:12:34.396Z,67.2
2023-04-09T10:13:34.372Z,67.2
2023-04-09T10:14:34.354Z,67.2
2023-04-09T10:15:34.417Z,67.2
2023-04-09T10:16:34.408Z,67.2
2023-04-09T10:17:35.424Z,67.2
2023-04-09T10:18:34.354Z,67.2
2023-04-09T10:19:34.353Z,67.2
2023-04-09T10:20:34.354Z,67.2
2023-04-09T10:21:34.397Z,67.2
2023-04-09T10:22:34.451Z,67.2
2023-04-09T10:23:34.376Z,67.2
2023-04-09T10:24:34.374Z,67.2
2023-04-09T10:25:34.375Z,67.2
2023-04-09T10:26:34.373Z,67.2
2023-04-09T10:27:34.364Z,67.2
2023-04-09T10:28:34.425Z,67.2
2023-04-09T10:29:34.653Z,67.2
2023-04-09T10:30:34.390Z,64.9
2023-04-09T10:31:34.383Z,64.9
2023-04-09T10:32:34.390Z,64.9
2023-04-09T10:33:34.420Z,64.9
2023-04-09T10:34:34.383Z,64.9
2023-04-09T10:35:34.380Z,64.9
2023-04-09T10:36:34.428Z,64.9
2023-04-09T10:37:34.374Z,64.9
2023-04-09T10:38:34.401Z,64.9
2023-04-09T10:39:34.461Z,64.9
2023-04-09T10:40:34.389Z,64.9
2023-04-09T10:41:34.434Z,64.9
2023-04-09T10:42:34.402Z,64.9
2023-04-09T10:43:34.387Z,64.9
2023-04-09T10:44:34.378Z,64.9
2023-04-09T10:45:34.404Z,64.9
2023-04-09T10:46:34.448Z,64.9
2023-04-09T10:47:34.542Z,64.9
2023-04-09T10:48:34.404Z,64.9
2023-04-09T10:49:34.385Z,64.9
2023-04-09T10:50:34.433Z,64.9
2023-04-09T10:51:34.440Z,64.9
2023-04-09T10:52:34.412Z,64.9
2023-04-09T10:53:34.399Z,64.9
2023-04-09T10:54:34.443Z,64.9
2023-04-09T10:55:34.430Z,64.9
2023-04-09T10:56:34.430Z,64.9
2023-04-09T10:57:34.437Z,64.9
2023-04-09T10:58:34.443Z,64.9
2023-04-09T10:59:34.415Z,64.9
2023-04-09T11:00:34.437Z,64.9
2023-04-09T11:01:34.504Z,64.9
2023-04-09T11:02:34.607Z,64.9
2023-04-09T11:03:34.505Z,64.9
2023-04-09T11:04:34.486Z,64.9
2023-04-09T11:05:34.424Z,64.9
2023-04-09T11:06:34.470Z,64.9
2023-04-09T11:07:34.442Z,64.9
2023-04-09T11:08:34.484Z,64.9
2023-04-09T11:09:34.462Z,64.9
2023-04-09T11:10:34.469Z,64.9
2023-04-09T11:11:34.412Z,64.9
2023-04-09T11:12:34.436Z,64.9
2023-04-09T11:13:34.733Z,64.9
2023-04-09T11:14:34.465Z,64.9
2023-04-09T11:15:34.449Z,64.9
2023-04-09T11:16:34.521Z,64.9
2023-04-09T11:17:34.533Z,64.4
2023-04-09T11:18:34.475Z,64.4
2023-04-09T11:19:34.491Z,64.4
2023-04-09T11:20:34.529Z,64.4
2023-04-09T11:21:35.844Z,64.4
2023-04-09T11:22:34.469Z,64.4
2023-04-09T11:23:34.433Z,64.4
2023-04-09T11:24:34.558Z,64.4
2023-04-09T11:25:34.456Z,64.4
2023-04-09T11:26:34.486Z,64.4
2023-04-09T11:27:34.458Z,64.4
2023-04-09T11:28:34.466Z,63.1
2023-04-09T11:29:34.466Z,63.1
2023-04-09T11:30:34.517Z,63.1
2023-04-09T11:31:35.501Z,63.1
2023-04-09T11:32:34.547Z,63.1
2023-04-09T11:33:34.606Z,63.1
2023-04-09T11:34:34.467Z,63.1
2023-04-09T11:35:34.523Z,64.6
2023-04-09T11:36:34.494Z,64.6
2023-04-09T11:37:34.437Z,64.6
2023-04-09T11:38:34.483Z,64.6
2023-04-09T11:39:34.470Z,64.6
2023-04-09T11:40:34.485Z,64.6
2023-04-09T11:41:34.471Z,64.6
2023-04-09T11:42:34.470Z,64.6
2023-04-09T11:43:34.468Z,64.6
2023-04-09T11:44:34.518Z,64.6
2023-04-09T11:45:34.496Z,64.6
2023-04-09T11:46:34.517Z,64.6
2023-04-09T11:47:34.495Z,64.6
2023-04-09T11:48:34.512Z,64.6
2023-04-09T11:49:34.498Z,61.9
2023-04-09T11:50:34.478Z,61.9
2023-04-09T11:51:34.476Z,61.9
2023-04-09T11:52:34.501Z,61.9
2023-04-09T11:53:34.554Z,61.9
2023-04-09T11:54:34.509Z,61.9
2023-04-09T11:55:34.487Z,61.9
2023-04-09T11:56:34.503Z,61.9
2023-04-09T11:57:34.497Z,61.9
2023-04-09T11:58:34.521Z,61.9
2023-04-09T11:59:34.531Z,61.9
2023-04-09T12:00:34.580Z,61.9
2023-04-09T12:01:34.524Z,61.9
2023-04-09T12:02:34.596Z,61.9
2023-04-09T12:03:34.676Z,61.9
2023-04-09T12:04:34.736Z,61.9
2023-04-09T12:05:34.524Z,61.9
2023-04-09T12:06:34.560Z,61.9
2023-04-09T12:07:34.552Z,61.9
2023-04-09T12:08:34.683Z,61.9
2023-04-09T12:09:34.529Z,61.9
2023-04-09T12:10:34.530Z,61.9
2023-04-09T12:11:34.605Z,61.9
2023-04-09T12:12:34.512Z,61.9
2023-04-09T12:13:34.525Z,61.9
2023-04-09T12:14:34.580Z,61.9
2023-04-09T12:15:34.579Z,61.9
2023-04-09T12:16:34.609Z,61.9
2023-04-09T12:17:34.646Z,61.9
2023-04-09T12:18:34.580Z,61.9
2023-04-09T12:19:34.575Z,61.9
2023-04-09T12:20:34.513Z,61.9
2023-04-09T12:21:34.509Z,61.9
2023-04-09T12:22:34.525Z,61.9
2023-04-09T12:23:34.592Z,62.6
2023-04-09T12:24:34.575Z,62.6
2023-04-09T12:25:34.568Z,62.6
2023-04-09T12:26:34.550Z,62.6
2023-04-09T12:27:34.584Z,62.6
2023-04-09T12:28:34.517Z,62.6
2023-04-09T12:29:34.554Z,62.6
2023-04-09T12:30:34.570Z,62.6
2023-04-09T12:31:34.589Z,62.6
2023-04-09T12:32:34.638Z,62.6
2023-04-09T12:33:34.634Z,62.6
2023-04-09T12:34:34.590Z,62.6
2023-04-09T12:35:34.645Z,62.6
2023-04-09T12:36:34.520Z,62.6
2023-04-09T12:37:34.521Z,62.6
2023-04-09T12:38:34.546Z,62.6
2023-04-09T12:39:34.619Z,62.6
2023-04-09T12:40:34.523Z,62.6
2023-04-09T12:41:34.623Z,62.6
2023-04-09T12:42:34.561Z,62.6
2023-04-09T12:43:34.564Z,62.6
2023-04-09T12:44:34.535Z,62.6
2023-04-09T12:45:34.572Z,62.6
2023-04-09T12:46:34.674Z,62.6
2023-04-09T12:47:34.613Z,62.6
2023-04-09T12:48:34.543Z,62.6
2023-04-09T12:49:34.568Z,62.6
2023-04-09T12:50:34.548Z,62.6
2023-04-09T12:51:34.520Z,62.6
2023-04-09T12:52:34.537Z,62.6
2023-04-09T12:53:34.543Z,62.6
2023-04-09T12:54:34.613Z,62.6
2023-04-09T12:55:34.558Z,62.6
2023-04-09T12:56:34.632Z,62.6
2023-04-09T12:57:34.543Z,62.6
2023-04-09T12:58:34.574Z,62.6
2023-04-09T12:59:34.566Z,62.6
2023-04-09T13:00:34.616Z,62.6
2023-04-09T13:01:34.679Z,62.6
2023-04-09T13:02:34.725Z,62.6
2023-04-09T13:03:34.740Z,62.6
2023-04-09T13:04:34.703Z,62.6
2023-04-09T13:05:34.714Z,62.6
2023-04-09T13:06:34.612Z,62.6
2023-04-09T13:07:34.649Z,62.6
2023-04-09T13:08:34.577Z,62.6
2023-04-09T13:09:34.599Z,62.6
2023-04-09T13:10:34.597Z,62.6
2023-04-09T13:11:34.575Z,62.6
2023-04-09T13:12:34.577Z,62.6
2023-04-09T13:13:34.574Z,62.6
2023-04-09T13:14:34.581Z,62.6
2023-04-09T13:15:34.591Z,62.6
2023-04-09T13:16:34.617Z,62.6
2023-04-09T13:17:34.792Z,62.6
2023-04-09T13:18:34.589Z,62.7
2023-04-09T13:19:34.613Z,62.7